sensor_id;sensor_type;location;lat;lon;timestamp;temperature;humidity
56725;DHT22;42608;52.776;6.968;2023-07-16T00:01:42;18.40;99.90
56725;DHT22;42608;52.776;6.968;2023-07-16T00:04:08;18.40;99.90
56725;DHT22;42608;52.776;6.968;2023-07-16T00:06:33;18.40;99.90
56725;DHT22;42608;52.776;6.968;2023-07-16T00:09:00;18.40;99.90
56725;DHT22;42608;52.776;6.968;2023-07-16T00:11:25;18.40;99.90
56725;DHT22;42608;52.776;6.968;2023-07-16T00:13:51;18.30;99.90
56725;DHT22;42608;52.776;6.968;2023-07-16T00:16:17;18.40;99.90
56725;DHT22;42608;52.776;6.968;2023-07-16T00:18:44;18.30;99.90
56725;DHT22;42608;52.776;6.968;2023-07-16T00:21:10;18.30;99.90
56725;DHT22;42608;52.776;6.968;2023-07-16T00:23:36;18.30;99.90
56725;DHT22;42608;52.776;6.968;2023-07-16T00:26:02;18.20;99.90
56725;DHT22;42608;52.776;6.968;2023-07-16T00:28:29;18.20;99.90
56725;DHT22;42608;52.776;6.968;2023-07-16T00:30:54;18.10;99.90
56725;DHT22;42608;52.776;6.968;2023-07-16T00:33:20;18.10;99.90
56725;DHT22;42608;52.776;6.968;2023-07-16T00:35:49;18.00;99.90
56725;DHT22;42608;52.776;6.968;2023-07-16T00:38:21;18.00;99.90
56725;DHT22;42608;52.776;6.968;2023-07-16T00:40:47;18.00;99.90
56725;DHT22;42608;52.776;6.968;2023-07-16T00:43:13;18.00;99.90
56725;DHT22;42608;52.776;6.968;2023-07-16T00:45:40;18.00;99.90
56725;DHT22;42608;52.776;6.968;2023-07-16T00:48:08;17.90;99.90
56725;DHT22;42608;52.776;6.968;2023-07-16T00:50:36;17.90;99.90
56725;DHT22;42608;52.776;6.968;2023-07-16T00:53:06;17.90;99.90
56725;DHT22;42608;52.776;6.968;2023-07-16T00:55:34;17.90;99.90
56725;DHT22;42608;52.776;6.968;2023-07-16T00:58:03;17.80;99.90
56725;DHT22;42608;52.776;6.968;2023-07-16T01:00:34;17.80;99.90
56725;DHT22;42608;52.776;6.968;2023-07-16T01:03:01;17.80;99.90
56725;DHT22;42608;52.776;6.968;2023-07-16T01:05:36;17.70;99.90
56725;DHT22;42608;52.776;6.968;2023-07-16T01:08:07;17.70;99.90
56725;DHT22;42608;52.776;6.968;2023-07-16T01:10:34;17.70;99.90
56725;DHT22;42608;52.776;6.968;2023-07-16T01:13:00;17.70;99.90
56725;DHT22;42608;52.776;6.968;2023-07-16T01:15:25;17.70;99.90
56725;DHT22;42608;52.776;6.968;2023-07-16T01:17:51;17.70;99.90
56725;DHT22;42608;52.776;6.968;2023-07-16T01:20:17;17.60;99.90
56725;DHT22;42608;52.776;6.968;2023-07-16T01:23:29;17.60;99.90
56725;DHT22;42608;52.776;6.968;2023-07-16T01:25:45;17.60;99.90
56725;DHT22;42608;52.776;6.968;2023-07-16T01:28:21;17.60;99.90
56725;DHT22;42608;52.776;6.968;2023-07-16T01:30:50;17.60;99.90
56725;DHT22;42608;52.776;6.968;2023-07-16T01:33:18;17.50;99.90
56725;DHT22;42608;52.776;6.968;2023-07-16T01:35:45;17.50;99.90
56725;DHT22;42608;52.776;6.968;2023-07-16T01:38:13;17.50;99.90
56725;DHT22;42608;52.776;6.968;2023-07-16T01:40:41;17.50;99.90
56725;DHT22;42608;52.776;6.968;2023-07-16T01:43:07;17.50;99.90
56725;DHT22;42608;52.776;6.968;2023-07-16T01:45:33;17.50;99.90
56725;DHT22;42608;52.776;6.968;2023-07-16T01:50:49;17.50;99.90
56725;DHT22;42608;52.776;6.968;2023-07-16T01:53:15;17.40;99.90
56725;DHT22;42608;52.776;6.968;2023-07-16T01:55:40;17.40;99.90
56725;DHT22;42608;52.776;6.968;2023-07-16T01:58:06;17.40;99.90
56725;DHT22;42608;52.776;6.968;2023-07-16T02:00:31;17.40;99.90
56725;DHT22;42608;52.776;6.968;2023-07-16T02:02:57;17.30;99.90
56725;DHT22;42608;52.776;6.968;2023-07-16T02:05:23;17.30;99.90
56725;DHT22;42608;52.776;6.968;2023-07-16T02:07:48;17.30;99.90
56725;DHT22;42608;52.776;6.968;2023-07-16T02:10:17;17.30;99.90
56725;DHT22;42608;52.776;6.968;2023-07-16T02:12:43;17.30;99.90
56725;DHT22;42608;52.776;6.968;2023-07-16T02:15:11;17.30;99.90
56725;DHT22;42608;52.776;6.968;2023-07-16T02:17:37;17.20;99.90
56725;DHT22;42608;52.776;6.968;2023-07-16T02:20:06;17.20;99.90
56725;DHT22;42608;52.776;6.968;2023-07-16T02:22:33;17.20;99.90
56725;DHT22;42608;52.776;6.968;2023-07-16T02:24:59;17.10;99.90
56725;DHT22;42608;52.776;6.968;2023-07-16T02:27:24;17.10;99.90
56725;DHT22;42608;52.776;6.968;2023-07-16T02:29:50;17.10;99.90
56725;DHT22;42608;52.776;6.968;2023-07-16T02:32:15;17.10;99.90
56725;DHT22;42608;52.776;6.968;2023-07-16T02:34:41;17.10;99.90
56725;DHT22;42608;52.776;6.968;2023-07-16T02:37:07;17.00;99.90
56725;DHT22;42608;52.776;6.968;2023-07-16T02:39:32;17.00;99.90
56725;DHT22;42608;52.776;6.968;2023-07-16T02:41:58;17.00;99.90
56725;DHT22;42608;52.776;6.968;2023-07-16T02:44:24;17.00;99.90
56725;DHT22;42608;52.776;6.968;2023-07-16T02:46:49;17.00;99.90
56725;DHT22;42608;52.776;6.968;2023-07-16T02:49:15;17.00;99.90
56725;DHT22;42608;52.776;6.968;2023-07-16T02:51:40;16.90;99.90
56725;DHT22;42608;52.776;6.968;2023-07-16T02:54:06;16.90;99.90
56725;DHT22;42608;52.776;6.968;2023-07-16T02:56:32;16.90;99.90
56725;DHT22;42608;52.776;6.968;2023-07-16T02:58:58;16.90;99.90
56725;DHT22;42608;52.776;6.968;2023-07-16T03:01:25;16.80;99.90
56725;DHT22;42608;52.776;6.968;2023-07-16T03:03:51;16.80;99.90
56725;DHT22;42608;52.776;6.968;2023-07-16T03:06:16;16.80;99.90
56725;DHT22;42608;52.776;6.968;2023-07-16T03:08:42;16.80;99.90
56725;DHT22;42608;52.776;6.968;2023-07-16T03:11:08;16.70;99.90
56725;DHT22;42608;52.776;6.968;2023-07-16T03:13:33;16.70;99.90
56725;DHT22;42608;52.776;6.968;2023-07-16T03:15:59;16.70;99.90
56725;DHT22;42608;52.776;6.968;2023-07-16T03:18:28;16.70;99.90
56725;DHT22;42608;52.776;6.968;2023-07-16T03:20:55;16.70;99.90
56725;DHT22;42608;52.776;6.968;2023-07-16T03:23:21;16.60;99.90
56725;DHT22;42608;52.776;6.968;2023-07-16T03:25:47;16.60;99.90
56725;DHT22;42608;52.776;6.968;2023-07-16T03:28:18;16.70;99.90
56725;DHT22;42608;52.776;6.968;2023-07-16T03:30:48;16.60;99.90
56725;DHT22;42608;52.776;6.968;2023-07-16T03:33:14;16.60;99.90
56725;DHT22;42608;52.776;6.968;2023-07-16T03:35:42;16.60;99.90
56725;DHT22;42608;52.776;6.968;2023-07-16T03:38:08;16.60;99.90
56725;DHT22;42608;52.776;6.968;2023-07-16T03:40:34;16.60;99.90
56725;DHT22;42608;52.776;6.968;2023-07-16T03:42:59;16.60;99.90
56725;DHT22;42608;52.776;6.968;2023-07-16T03:45:45;16.50;99.90
56725;DHT22;42608;52.776;6.968;2023-07-16T03:48:11;16.50;99.90
56725;DHT22;42608;52.776;6.968;2023-07-16T03:50:36;16.50;99.90
56725;DHT22;42608;52.776;6.968;2023-07-16T03:53:02;16.50;99.90
56725;DHT22;42608;52.776;6.968;2023-07-16T03:55:29;16.50;99.90
56725;DHT22;42608;52.776;6.968;2023-07-16T03:57:55;16.50;99.90
56725;DHT22;42608;52.776;6.968;2023-07-16T04:00:23;16.50;99.90
56725;DHT22;42608;52.776;6.968;2023-07-16T04:02:49;16.50;99.90
56725;DHT22;42608;52.776;6.968;2023-07-16T04:05:14;16.50;99.90
56725;DHT22;42608;52.776;6.968;2023-07-16T04:07:40;16.50;99.90
56725;DHT22;42608;52.776;6.968;2023-07-16T04:10:06;16.50;99.90
56725;DHT22;42608;52.776;6.968;2023-07-16T04:12:33;16.50;99.90
56725;DHT22;42608;52.776;6.968;2023-07-16T04:14:59;16.50;99.90
56725;DHT22;42608;52.776;6.968;2023-07-16T04:17:25;16.50;99.90
56725;DHT22;42608;52.776;6.968;2023-07-16T04:19:51;16.50;99.90
56725;DHT22;42608;52.776;6.968;2023-07-16T04:22:17;16.50;99.90
56725;DHT22;42608;52.776;6.968;2023-07-16T04:24:43;16.50;99.90
56725;DHT22;42608;52.776;6.968;2023-07-16T04:27:08;16.50;99.90
56725;DHT22;42608;52.776;6.968;2023-07-16T04:29:34;16.50;99.90
56725;DHT22;42608;52.776;6.968;2023-07-16T04:32:00;16.50;99.90
56725;DHT22;42608;52.776;6.968;2023-07-16T04:34:25;16.50;99.90
56725;DHT22;42608;52.776;6.968;2023-07-16T04:36:51;16.50;99.90
56725;DHT22;42608;52.776;6.968;2023-07-16T04:39:17;16.50;99.90
56725;DHT22;42608;52.776;6.968;2023-07-16T04:41:46;16.50;99.90
56725;DHT22;42608;52.776;6.968;2023-07-16T04:44:11;16.50;99.90
56725;DHT22;42608;52.776;6.968;2023-07-16T04:46:40;16.50;99.90
56725;DHT22;42608;52.776;6.968;2023-07-16T04:49:05;16.60;99.90
56725;DHT22;42608;52.776;6.968;2023-07-16T04:51:31;16.50;99.90
56725;DHT22;42608;52.776;6.968;2023-07-16T04:54:03;16.60;99.90
56725;DHT22;42608;52.776;6.968;2023-07-16T04:56:28;16.60;99.90
56725;DHT22;42608;52.776;6.968;2023-07-16T04:58:54;16.60;99.90
56725;DHT22;42608;52.776;6.968;2023-07-16T05:01:20;16.60;99.90
56725;DHT22;42608;52.776;6.968;2023-07-16T05:03:46;16.60;99.90
56725;DHT22;42608;52.776;6.968;2023-07-16T05:06:11;16.60;99.90
56725;DHT22;42608;52.776;6.968;2023-07-16T05:08:37;16.70;99.90
56725;DHT22;42608;52.776;6.968;2023-07-16T05:11:03;16.70;99.90
56725;DHT22;42608;52.776;6.968;2023-07-16T05:13:30;16.70;99.90
56725;DHT22;42608;52.776;6.968;2023-07-16T05:15:55;16.70;99.90
56725;DHT22;42608;52.776;6.968;2023-07-16T05:18:21;16.70;99.90
56725;DHT22;42608;52.776;6.968;2023-07-16T05:20:48;16.80;99.90
56725;DHT22;42608;52.776;6.968;2023-07-16T05:23:14;16.80;99.90
56725;DHT22;42608;52.776;6.968;2023-07-16T05:25:49;16.80;99.90
56725;DHT22;42608;52.776;6.968;2023-07-16T05:28:15;16.80;99.90
56725;DHT22;42608;52.776;6.968;2023-07-16T05:30:41;16.90;99.90
56725;DHT22;42608;52.776;6.968;2023-07-16T05:33:07;16.90;99.90
56725;DHT22;42608;52.776;6.968;2023-07-16T05:35:33;16.90;99.90
56725;DHT22;42608;52.776;6.968;2023-07-16T05:38:01;16.90;99.90
56725;DHT22;42608;52.776;6.968;2023-07-16T05:40:27;17.00;99.90
56725;DHT22;42608;52.776;6.968;2023-07-16T05:42:53;17.00;99.90
56725;DHT22;42608;52.776;6.968;2023-07-16T05:45:18;17.00;99.90
56725;DHT22;42608;52.776;6.968;2023-07-16T05:47:44;17.10;99.90
56725;DHT22;42608;52.776;6.968;2023-07-16T05:50:10;17.10;99.90
56725;DHT22;42608;52.776;6.968;2023-07-16T05:52:35;17.10;99.90
56725;DHT22;42608;52.776;6.968;2023-07-16T05:55:01;17.20;99.90
56725;DHT22;42608;52.776;6.968;2023-07-16T05:57:27;17.20;99.90
56725;DHT22;42608;52.776;6.968;2023-07-16T05:59:53;17.20;99.90
56725;DHT22;42608;52.776;6.968;2023-07-16T06:02:21;17.20;99.90
56725;DHT22;42608;52.776;6.968;2023-07-16T06:04:47;17.20;99.90
56725;DHT22;42608;52.776;6.968;2023-07-16T06:07:13;17.30;99.90
56725;DHT22;42608;52.776;6.968;2023-07-16T06:09:41;17.30;99.90
56725;DHT22;42608;52.776;6.968;2023-07-16T06:12:07;17.30;99.90
56725;DHT22;42608;52.776;6.968;2023-07-16T06:14:32;17.30;99.90
56725;DHT22;42608;52.776;6.968;2023-07-16T06:16:58;17.30;99.90
56725;DHT22;42608;52.776;6.968;2023-07-16T06:19:30;17.30;99.90
56725;DHT22;42608;52.776;6.968;2023-07-16T06:21:56;17.40;99.90
56725;DHT22;42608;52.776;6.968;2023-07-16T06:24:21;17.40;99.90
56725;DHT22;42608;52.776;6.968;2023-07-16T06:26:47;17.40;99.90
56725;DHT22;42608;52.776;6.968;2023-07-16T06:29:13;17.50;99.90
56725;DHT22;42608;52.776;6.968;2023-07-16T06:31:42;17.50;99.90
56725;DHT22;42608;52.776;6.968;2023-07-16T06:34:08;17.60;99.90
56725;DHT22;42608;52.776;6.968;2023-07-16T06:36:33;17.60;99.90
56725;DHT22;42608;52.776;6.968;2023-07-16T06:38:59;17.60;99.90
56725;DHT22;42608;52.776;6.968;2023-07-16T06:41:26;17.60;99.90
56725;DHT22;42608;52.776;6.968;2023-07-16T06:43:51;17.60;99.90
56725;DHT22;42608;52.776;6.968;2023-07-16T06:46:17;17.70;99.90
56725;DHT22;42608;52.776;6.968;2023-07-16T06:48:48;17.80;99.90
56725;DHT22;42608;52.776;6.968;2023-07-16T06:51:14;17.80;99.90
56725;DHT22;42608;52.776;6.968;2023-07-16T06:53:39;17.80;99.90
56725;DHT22;42608;52.776;6.968;2023-07-16T06:56:05;17.80;99.90
56725;DHT22;42608;52.776;6.968;2023-07-16T06:58:32;17.80;99.90
56725;DHT22;42608;52.776;6.968;2023-07-16T07:01:01;17.80;99.90
56725;DHT22;42608;52.776;6.968;2023-07-16T07:03:27;17.80;99.90
56725;DHT22;42608;52.776;6.968;2023-07-16T07:05:52;17.90;99.90
56725;DHT22;42608;52.776;6.968;2023-07-16T07:08:18;17.90;99.90
56725;DHT22;42608;52.776;6.968;2023-07-16T07:10:46;17.90;99.90
56725;DHT22;42608;52.776;6.968;2023-07-16T07:13:12;17.90;99.90
56725;DHT22;42608;52.776;6.968;2023-07-16T07:15:37;18.00;99.90
56725;DHT22;42608;52.776;6.968;2023-07-16T07:18:03;18.00;99.90
56725;DHT22;42608;52.776;6.968;2023-07-16T07:20:29;18.10;99.90
56725;DHT22;42608;52.776;6.968;2023-07-16T07:22:54;18.10;99.90
56725;DHT22;42608;52.776;6.968;2023-07-16T07:25:20;18.10;99.90
56725;DHT22;42608;52.776;6.968;2023-07-16T07:27:46;18.10;99.90
56725;DHT22;42608;52.776;6.968;2023-07-16T07:30:11;18.20;99.90
56725;DHT22;42608;52.776;6.968;2023-07-16T07:32:37;18.20;99.90
56725;DHT22;42608;52.776;6.968;2023-07-16T07:35:04;18.20;99.90
56725;DHT22;42608;52.776;6.968;2023-07-16T07:37:33;18.30;99.90
56725;DHT22;42608;52.776;6.968;2023-07-16T07:39:59;18.30;99.90
56725;DHT22;42608;52.776;6.968;2023-07-16T07:42:25;18.30;99.90
56725;DHT22;42608;52.776;6.968;2023-07-16T07:44:52;18.40;99.90
56725;DHT22;42608;52.776;6.968;2023-07-16T07:47:21;18.40;99.90
56725;DHT22;42608;52.776;6.968;2023-07-16T07:49:47;18.40;99.90
56725;DHT22;42608;52.776;6.968;2023-07-16T07:52:12;18.50;99.90
56725;DHT22;42608;52.776;6.968;2023-07-16T07:54:38;18.50;99.90
56725;DHT22;42608;52.776;6.968;2023-07-16T07:57:07;18.50;99.90
56725;DHT22;42608;52.776;6.968;2023-07-16T07:59:33;18.60;99.90
56725;DHT22;42608;52.776;6.968;2023-07-16T08:01:59;18.60;99.90
56725;DHT22;42608;52.776;6.968;2023-07-16T08:04:27;18.60;99.90
56725;DHT22;42608;52.776;6.968;2023-07-16T08:06:53;18.70;99.90
56725;DHT22;42608;52.776;6.968;2023-07-16T08:09:19;18.70;99.90
56725;DHT22;42608;52.776;6.968;2023-07-16T08:11:45;18.80;99.90
56725;DHT22;42608;52.776;6.968;2023-07-16T08:14:13;18.80;99.90
56725;DHT22;42608;52.776;6.968;2023-07-16T08:16:38;18.80;99.90
56725;DHT22;42608;52.776;6.968;2023-07-16T08:19:04;18.90;99.90
56725;DHT22;42608;52.776;6.968;2023-07-16T08:21:30;18.90;99.90
56725;DHT22;42608;52.776;6.968;2023-07-16T08:23:55;18.90;99.90
56725;DHT22;42608;52.776;6.968;2023-07-16T08:26:21;19.00;99.90
56725;DHT22;42608;52.776;6.968;2023-07-16T08:28:47;19.10;99.90
56725;DHT22;42608;52.776;6.968;2023-07-16T08:31:12;19.10;99.90
56725;DHT22;42608;52.776;6.968;2023-07-16T08:33:38;19.20;99.90
56725;DHT22;42608;52.776;6.968;2023-07-16T08:36:08;19.20;99.90
56725;DHT22;42608;52.776;6.968;2023-07-16T08:38:37;19.20;99.90
56725;DHT22;42608;52.776;6.968;2023-07-16T08:41:05;19.30;99.90
56725;DHT22;42608;52.776;6.968;2023-07-16T08:43:34;19.30;99.90
56725;DHT22;42608;52.776;6.968;2023-07-16T08:46:07;19.30;99.90
56725;DHT22;42608;52.776;6.968;2023-07-16T08:48:36;19.30;99.90
56725;DHT22;42608;52.776;6.968;2023-07-16T08:51:02;19.40;99.90
56725;DHT22;42608;52.776;6.968;2023-07-16T08:53:30;19.40;99.90
56725;DHT22;42608;52.776;6.968;2023-07-16T08:55:55;19.40;99.90
56725;DHT22;42608;52.776;6.968;2023-07-16T08:58:23;19.30;99.90
56725;DHT22;42608;52.776;6.968;2023-07-16T09:00:52;19.30;99.90
56725;DHT22;42608;52.776;6.968;2023-07-16T09:03:18;19.30;99.90
56725;DHT22;42608;52.776;6.968;2023-07-16T09:05:47;19.30;99.90
56725;DHT22;42608;52.776;6.968;2023-07-16T09:08:13;19.30;99.90
56725;DHT22;42608;52.776;6.968;2023-07-16T09:10:42;19.30;99.90
56725;DHT22;42608;52.776;6.968;2023-07-16T09:13:08;19.30;99.90
56725;DHT22;42608;52.776;6.968;2023-07-16T09:15:34;19.30;99.90
56725;DHT22;42608;52.776;6.968;2023-07-16T09:18:00;19.40;99.90
56725;DHT22;42608;52.776;6.968;2023-07-16T09:20:26;19.40;99.90
56725;DHT22;42608;52.776;6.968;2023-07-16T09:22:56;19.40;99.90
56725;DHT22;42608;52.776;6.968;2023-07-16T09:25:29;19.50;99.90
56725;DHT22;42608;52.776;6.968;2023-07-16T09:28:01;19.50;99.90
56725;DHT22;42608;52.776;6.968;2023-07-16T09:30:33;19.50;99.90
56725;DHT22;42608;52.776;6.968;2023-07-16T09:33:16;19.60;99.90
56725;DHT22;42608;52.776;6.968;2023-07-16T09:35:43;19.60;99.90
56725;DHT22;42608;52.776;6.968;2023-07-16T09:38:09;19.60;99.90
56725;DHT22;42608;52.776;6.968;2023-07-16T09:40:36;19.70;99.90
56725;DHT22;42608;52.776;6.968;2023-07-16T09:43:03;19.80;99.90
56725;DHT22;42608;52.776;6.968;2023-07-16T09:45:29;19.80;99.90
56725;DHT22;42608;52.776;6.968;2023-07-16T09:47:55;19.80;99.90
56725;DHT22;42608;52.776;6.968;2023-07-16T09:50:23;19.80;99.90
56725;DHT22;42608;52.776;6.968;2023-07-16T09:52:51;19.80;99.90
56725;DHT22;42608;52.776;6.968;2023-07-16T09:55:22;19.80;99.90
56725;DHT22;42608;52.776;6.968;2023-07-16T09:57:48;19.80;99.90
56725;DHT22;42608;52.776;6.968;2023-07-16T10:00:16;19.80;99.90
56725;DHT22;42608;52.776;6.968;2023-07-16T10:02:45;19.80;99.90
56725;DHT22;42608;52.776;6.968;2023-07-16T10:05:26;19.80;99.90
56725;DHT22;42608;52.776;6.968;2023-07-16T10:07:57;19.80;99.90
56725;DHT22;42608;52.776;6.968;2023-07-16T10:13:11;19.90;99.90
56725;DHT22;42608;52.776;6.968;2023-07-16T10:15:38;19.90;99.90
56725;DHT22;42608;52.776;6.968;2023-07-16T10:18:04;20.00;99.90
56725;DHT22;42608;52.776;6.968;2023-07-16T10:20:31;20.10;99.90
56725;DHT22;42608;52.776;6.968;2023-07-16T10:22:58;20.10;99.90
56725;DHT22;42608;52.776;6.968;2023-07-16T10:25:26;20.20;99.90
56725;DHT22;42608;52.776;6.968;2023-07-16T10:27:53;20.20;99.90
56725;DHT22;42608;52.776;6.968;2023-07-16T10:30:19;20.30;99.90
56725;DHT22;42608;52.776;6.968;2023-07-16T10:32:45;20.20;99.90
56725;DHT22;42608;52.776;6.968;2023-07-16T10:35:12;20.20;99.90
56725;DHT22;42608;52.776;6.968;2023-07-16T10:37:39;20.20;99.90
56725;DHT22;42608;52.776;6.968;2023-07-16T10:40:10;20.20;99.90
56725;DHT22;42608;52.776;6.968;2023-07-16T10:42:36;20.30;99.90
56725;DHT22;42608;52.776;6.968;2023-07-16T10:45:04;20.20;99.90
56725;DHT22;42608;52.776;6.968;2023-07-16T10:47:30;20.20;99.90
56725;DHT22;42608;52.776;6.968;2023-07-16T10:49:56;20.20;99.90
56725;DHT22;42608;52.776;6.968;2023-07-16T10:52:23;20.10;99.90
56725;DHT22;42608;52.776;6.968;2023-07-16T10:54:50;20.10;99.90
56725;DHT22;42608;52.776;6.968;2023-07-16T10:57:17;20.10;99.90
56725;DHT22;42608;52.776;6.968;2023-07-16T10:59:45;20.10;99.90
56725;DHT22;42608;52.776;6.968;2023-07-16T11:02:12;20.10;99.90
56725;DHT22;42608;52.776;6.968;2023-07-16T11:04:39;20.20;99.90
56725;DHT22;42608;52.776;6.968;2023-07-16T11:07:09;20.20;99.90
56725;DHT22;42608;52.776;6.968;2023-07-16T11:09:53;20.30;99.90
56725;DHT22;42608;52.776;6.968;2023-07-16T11:12:21;20.30;99.90
56725;DHT22;42608;52.776;6.968;2023-07-16T11:14:48;20.40;99.90
56725;DHT22;42608;52.776;6.968;2023-07-16T11:17:15;20.50;99.90
56725;DHT22;42608;52.776;6.968;2023-07-16T11:19:44;20.60;99.90
56725;DHT22;42608;52.776;6.968;2023-07-16T11:22:10;20.70;99.90
56725;DHT22;42608;52.776;6.968;2023-07-16T11:27:02;20.80;99.90
56725;DHT22;42608;52.776;6.968;2023-07-16T11:29:34;20.80;99.90
56725;DHT22;42608;52.776;6.968;2023-07-16T11:32:02;20.90;99.90
56725;DHT22;42608;52.776;6.968;2023-07-16T11:34:28;20.90;99.90
56725;DHT22;42608;52.776;6.968;2023-07-16T11:36:53;20.80;99.90
56725;DHT22;42608;52.776;6.968;2023-07-16T11:39:19;20.70;99.90
56725;DHT22;42608;52.776;6.968;2023-07-16T11:41:58;20.60;99.90
56725;DHT22;42608;52.776;6.968;2023-07-16T11:44:24;20.60;99.90
56725;DHT22;42608;52.776;6.968;2023-07-16T11:46:50;20.70;99.90
56725;DHT22;42608;52.776;6.968;2023-07-16T11:49:15;20.70;99.90
56725;DHT22;42608;52.776;6.968;2023-07-16T11:51:41;20.80;99.90
56725;DHT22;42608;52.776;6.968;2023-07-16T11:54:10;20.90;99.90
56725;DHT22;42608;52.776;6.968;2023-07-16T11:56:36;20.80;99.90
56725;DHT22;42608;52.776;6.968;2023-07-16T11:59:02;20.80;99.90
56725;DHT22;42608;52.776;6.968;2023-07-16T12:01:27;20.80;99.90
56725;DHT22;42608;52.776;6.968;2023-07-16T12:03:53;20.80;99.90
56725;DHT22;42608;52.776;6.968;2023-07-16T12:06:19;20.80;99.90
56725;DHT22;42608;52.776;6.968;2023-07-16T12:08:48;20.80;99.90
56725;DHT22;42608;52.776;6.968;2023-07-16T12:11:13;20.70;99.90
56725;DHT22;42608;52.776;6.968;2023-07-16T12:13:39;20.70;99.90
56725;DHT22;42608;52.776;6.968;2023-07-16T12:16:05;20.70;99.90
56725;DHT22;42608;52.776;6.968;2023-07-16T12:18:31;20.70;99.90
56725;DHT22;42608;52.776;6.968;2023-07-16T12:20:57;20.70;99.90
56725;DHT22;42608;52.776;6.968;2023-07-16T12:23:23;20.70;99.90
56725;DHT22;42608;52.776;6.968;2023-07-16T12:25:50;20.70;99.90
56725;DHT22;42608;52.776;6.968;2023-07-16T12:28:16;20.70;99.90
56725;DHT22;42608;52.776;6.968;2023-07-16T12:30:41;20.70;99.90
56725;DHT22;42608;52.776;6.968;2023-07-16T12:33:07;20.70;99.90
56725;DHT22;42608;52.776;6.968;2023-07-16T12:35:33;20.80;99.90
56725;DHT22;42608;52.776;6.968;2023-07-16T12:37:58;20.80;99.90
56725;DHT22;42608;52.776;6.968;2023-07-16T12:40:25;20.80;99.90
56725;DHT22;42608;52.776;6.968;2023-07-16T12:42:51;20.80;99.90
56725;DHT22;42608;52.776;6.968;2023-07-16T12:45:16;20.90;99.90
56725;DHT22;42608;52.776;6.968;2023-07-16T12:47:42;20.90;99.90
56725;DHT22;42608;52.776;6.968;2023-07-16T12:50:08;20.90;99.90
56725;DHT22;42608;52.776;6.968;2023-07-16T12:52:34;21.00;99.90
56725;DHT22;42608;52.776;6.968;2023-07-16T12:54:59;21.00;99.90
56725;DHT22;42608;52.776;6.968;2023-07-16T12:57:25;21.00;99.90
56725;DHT22;42608;52.776;6.968;2023-07-16T12:59:51;21.10;99.90
56725;DHT22;42608;52.776;6.968;2023-07-16T13:02:22;21.20;99.90
56725;DHT22;42608;52.776;6.968;2023-07-16T13:04:48;21.30;99.90
56725;DHT22;42608;52.776;6.968;2023-07-16T13:07:13;21.30;99.90
56725;DHT22;42608;52.776;6.968;2023-07-16T13:09:40;21.30;99.90
56725;DHT22;42608;52.776;6.968;2023-07-16T13:12:06;21.20;99.90
56725;DHT22;42608;52.776;6.968;2023-07-16T13:14:32;21.20;99.90
56725;DHT22;42608;52.776;6.968;2023-07-16T13:16:58;21.10;99.90
56725;DHT22;42608;52.776;6.968;2023-07-16T13:19:26;21.10;99.90
56725;DHT22;42608;52.776;6.968;2023-07-16T13:21:52;21.10;99.90
56725;DHT22;42608;52.776;6.968;2023-07-16T13:24:18;21.30;99.90
56725;DHT22;42608;52.776;6.968;2023-07-16T13:26:46;21.30;99.90
56725;DHT22;42608;52.776;6.968;2023-07-16T13:29:11;21.40;99.90
56725;DHT22;42608;52.776;6.968;2023-07-16T13:31:37;21.40;99.90
56725;DHT22;42608;52.776;6.968;2023-07-16T13:34:03;21.30;99.90
56725;DHT22;42608;52.776;6.968;2023-07-16T13:36:28;21.30;99.90
56725;DHT22;42608;52.776;6.968;2023-07-16T13:38:54;21.40;99.90
56725;DHT22;42608;52.776;6.968;2023-07-16T13:41:20;21.50;99.90
56725;DHT22;42608;52.776;6.968;2023-07-16T13:43:46;21.60;99.90
56725;DHT22;42608;52.776;6.968;2023-07-16T13:46:12;21.70;99.90
56725;DHT22;42608;52.776;6.968;2023-07-16T13:48:38;21.70;99.90
56725;DHT22;42608;52.776;6.968;2023-07-16T13:51:05;21.80;99.90
56725;DHT22;42608;52.776;6.968;2023-07-16T13:53:30;21.70;99.90
56725;DHT22;42608;52.776;6.968;2023-07-16T13:55:56;21.70;99.90
56725;DHT22;42608;52.776;6.968;2023-07-16T13:58:22;21.60;99.90
56725;DHT22;42608;52.776;6.968;2023-07-16T14:00:47;21.50;99.90
56725;DHT22;42608;52.776;6.968;2023-07-16T14:03:13;21.50;99.90
56725;DHT22;42608;52.776;6.968;2023-07-16T14:05:39;21.40;99.90
56725;DHT22;42608;52.776;6.968;2023-07-16T14:08:06;21.40;99.90
56725;DHT22;42608;52.776;6.968;2023-07-16T14:10:31;21.30;99.90
56725;DHT22;42608;52.776;6.968;2023-07-16T14:12:57;21.30;99.90
56725;DHT22;42608;52.776;6.968;2023-07-16T14:15:23;21.20;99.90
56725;DHT22;42608;52.776;6.968;2023-07-16T14:17:52;21.20;99.90
56725;DHT22;42608;52.776;6.968;2023-07-16T14:20:17;21.30;99.90
56725;DHT22;42608;52.776;6.968;2023-07-16T14:22:43;21.20;99.90
56725;DHT22;42608;52.776;6.968;2023-07-16T14:25:12;21.20;99.90
56725;DHT22;42608;52.776;6.968;2023-07-16T14:27:37;21.40;99.90
56725;DHT22;42608;52.776;6.968;2023-07-16T14:30:03;21.60;99.90
56725;DHT22;42608;52.776;6.968;2023-07-16T14:32:30;21.60;99.90
56725;DHT22;42608;52.776;6.968;2023-07-16T14:34:57;21.60;99.90
56725;DHT22;42608;52.776;6.968;2023-07-16T14:37:23;21.50;99.90
56725;DHT22;42608;52.776;6.968;2023-07-16T14:39:49;21.50;99.90
56725;DHT22;42608;52.776;6.968;2023-07-16T14:42:15;21.60;99.90
56725;DHT22;42608;52.776;6.968;2023-07-16T14:44:41;21.80;99.90
56725;DHT22;42608;52.776;6.968;2023-07-16T14:47:09;22.00;99.90
56725;DHT22;42608;52.776;6.968;2023-07-16T14:49:38;22.10;99.90
56725;DHT22;42608;52.776;6.968;2023-07-16T14:52:09;22.30;99.90
56725;DHT22;42608;52.776;6.968;2023-07-16T14:54:38;22.40;99.90
56725;DHT22;42608;52.776;6.968;2023-07-16T14:57:08;22.50;99.90
56725;DHT22;42608;52.776;6.968;2023-07-16T14:59:33;22.50;99.90
56725;DHT22;42608;52.776;6.968;2023-07-16T15:02:00;22.60;99.90
56725;DHT22;42608;52.776;6.968;2023-07-16T15:04:26;22.50;99.90
56725;DHT22;42608;52.776;6.968;2023-07-16T15:06:51;22.50;99.90
56725;DHT22;42608;52.776;6.968;2023-07-16T15:09:17;22.40;99.90
56725;DHT22;42608;52.776;6.968;2023-07-16T15:11:43;22.40;99.90
56725;DHT22;42608;52.776;6.968;2023-07-16T15:14:11;22.40;99.90
56725;DHT22;42608;52.776;6.968;2023-07-16T15:16:38;22.50;99.90
56725;DHT22;42608;52.776;6.968;2023-07-16T15:19:03;22.60;99.90
56725;DHT22;42608;52.776;6.968;2023-07-16T15:21:29;22.70;99.90
56725;DHT22;42608;52.776;6.968;2023-07-16T15:23:55;22.70;99.90
56725;DHT22;42608;52.776;6.968;2023-07-16T15:26:23;22.60;99.90
56725;DHT22;42608;52.776;6.968;2023-07-16T15:28:49;22.70;99.90
56725;DHT22;42608;52.776;6.968;2023-07-16T15:31:15;22.70;99.90
56725;DHT22;42608;52.776;6.968;2023-07-16T15:33:40;22.70;99.90
56725;DHT22;42608;52.776;6.968;2023-07-16T15:36:06;22.50;99.90